createdAt,value
2023-01-25T00:00:53.470Z,17.20
2023-01-25T00:03:21.494Z,16.90
2023-01-25T00:05:49.462Z,17.03
2023-01-25T00:08:17.652Z,16.80
2023-01-25T00:10:52.394Z,17.93
2023-01-25T00:13:20.383Z,16.93
2023-01-25T00:15:48.362Z,16.77
2023-01-25T00:18:16.340Z,17.17
2023-01-25T00:20:44.300Z,18.20
2023-01-25T00:23:12.355Z,16.00
2023-01-25T00:25:40.314Z,16.63
2023-01-25T00:28:09.661Z,16.17
2023-01-25T00:30:37.591Z,16.50
2023-01-25T00:33:26.271Z,16.67
2023-01-25T00:35:58.020Z,18.07
2023-01-25T00:38:30.162Z,16.00
2023-01-25T00:40:59.004Z,16.90
2023-01-25T00:43:28.314Z,16.27
2023-01-25T00:46:01.976Z,16.50
2023-01-25T00:48:31.115Z,15.73
2023-01-25T00:51:01.768Z,16.90
2023-01-25T00:53:30.069Z,17.13
2023-01-25T00:55:58.320Z,17.20
2023-01-25T00:58:26.395Z,17.57
2023-01-25T01:00:57.542Z,17.27
2023-01-25T01:03:25.960Z,17.17
2023-01-25T01:06:01.407Z,15.70
2023-01-25T01:08:29.400Z,15.83
2023-01-25T01:11:01.271Z,16.50
2023-01-25T01:13:29.555Z,17.83
2023-01-25T01:16:03.365Z,17.60
2023-01-25T01:18:35.469Z,16.17
2023-01-25T01:21:03.532Z,15.77
2023-01-25T01:23:32.441Z,16.03
2023-01-25T01:26:01.220Z,17.57
2023-01-25T01:28:29.946Z,16.33
2023-01-25T01:31:02.783Z,16.57
2023-01-25T01:33:36.195Z,16.30
2023-01-25T01:36:08.709Z,15.93
2023-01-25T01:38:37.054Z,15.17
2023-01-25T01:41:05.275Z,16.23
2023-01-25T01:43:33.742Z,16.03
2023-01-25T01:46:05.184Z,16.07
2023-01-25T01:48:42.124Z,17.17
2023-01-25T01:51:18.556Z,16.50
2023-01-25T01:53:51.676Z,16.50
2023-01-25T01:56:24.726Z,16.83
2023-01-25T01:58:56.249Z,16.40
2023-01-25T02:01:25.879Z,16.30
2023-01-25T02:03:55.407Z,18.30
2023-01-25T02:06:34.048Z,17.53
2023-01-25T02:09:03.162Z,17.57
2023-01-25T02:11:33.156Z,17.20
2023-01-25T02:14:02.859Z,17.27
2023-01-25T02:16:32.633Z,16.07
2023-01-25T02:19:02.715Z,16.87
2023-01-25T02:21:37.297Z,16.60
2023-01-25T02:24:13.669Z,16.93
2023-01-25T02:26:43.297Z,16.67
2023-01-25T02:29:12.063Z,17.93
2023-01-25T02:31:40.146Z,16.93
2023-01-25T02:34:08.294Z,18.20
2023-01-25T02:36:36.620Z,17.53
2023-01-25T02:39:08.411Z,16.77
2023-01-25T02:41:39.696Z,16.63
2023-01-25T02:44:11.798Z,16.90
2023-01-25T02:46:44.999Z,16.67
2023-01-25T02:49:13.603Z,17.73
2023-01-25T02:51:44.899Z,17.10
2023-01-25T02:54:15.098Z,17.37
2023-01-25T02:56:43.298Z,16.80
2023-01-25T02:59:13.983Z,17.07
2023-01-25T03:01:47.075Z,17.80
2023-01-25T03:04:15.859Z,18.30
2023-01-25T03:06:44.035Z,18.57
2023-01-25T03:09:13.477Z,18.40
2023-01-25T03:11:45.961Z,17.27
2023-01-25T03:14:15.334Z,16.93
2023-01-25T03:16:43.378Z,17.90
2023-01-25T03:19:11.708Z,17.47
2023-01-25T03:21:41.454Z,17.00
2023-01-25T03:24:11.499Z,18.93
2023-01-25T03:27:02.306Z,17.83
2023-01-25T03:29:37.249Z,17.60
2023-01-25T03:32:10.897Z,17.90
2023-01-25T03:34:38.851Z,17.40
2023-01-25T03:37:07.427Z,17.93
2023-01-25T03:39:36.795Z,17.73
2023-01-25T03:42:04.896Z,17.20
2023-01-25T03:44:34.141Z,17.93
2023-01-25T03:47:04.097Z,19.23
2023-01-25T03:49:32.599Z,20.00
2023-01-25T03:52:02.263Z,18.87
2023-01-25T03:54:36.891Z,18.30
2023-01-25T03:57:05.083Z,17.90
2023-01-25T03:59:40.958Z,18.87
2023-01-25T04:02:10.495Z,19.40
2023-01-25T04:04:38.579Z,18.50
2023-01-25T04:07:06.482Z,18.70
2023-01-25T04:09:35.813Z,19.17
2023-01-25T04:12:04.751Z,18.83
2023-01-25T04:14:44.254Z,20.10
2023-01-25T04:17:17.991Z,19.23
2023-01-25T04:19:55.163Z,19.10
2023-01-25T04:22:27.769Z,18.30
2023-01-25T04:24:57.541Z,20.13
2023-01-25T04:27:25.753Z,19.40
2023-01-25T04:30:01.407Z,18.93
2023-01-25T04:32:31.038Z,19.03
2023-01-25T04:35:00.874Z,19.10
2023-01-25T04:37:31.171Z,18.90
2023-01-25T04:40:00.913Z,20.07
2023-01-25T04:42:33.895Z,20.60
2023-01-25T04:45:02.090Z,19.80
2023-01-25T04:47:32.244Z,18.80
2023-01-25T04:50:00.950Z,19.40
2023-01-25T04:52:31.655Z,20.13
2023-01-25T04:54:59.918Z,20.63
2023-01-25T04:57:29.706Z,20.60
2023-01-25T04:59:58.725Z,21.63
2023-01-25T05:02:28.294Z,21.13
2023-01-25T05:04:58.324Z,22.03
2023-01-25T05:07:26.699Z,22.27
2023-01-25T05:09:54.907Z,20.60
2023-01-25T05:12:25.572Z,19.23
2023-01-25T05:14:57.215Z,20.57
2023-01-25T05:17:25.831Z,20.57
2023-01-25T05:19:53.781Z,22.00
2023-01-25T05:22:25.446Z,20.17
2023-01-25T05:24:54.941Z,21.43
2023-01-25T05:27:25.162Z,20.00
2023-01-25T05:29:57.012Z,18.83
2023-01-25T05:32:53.463Z,17.60
2023-01-25T05:35:21.431Z,20.07
2023-01-25T05:37:58.023Z,18.63
2023-01-25T05:40:28.565Z,19.80
2023-01-25T05:43:00.864Z,18.03
2023-01-25T05:45:31.181Z,19.37
2023-01-25T05:48:00.647Z,18.53
2023-01-25T05:50:28.930Z,19.13
2023-01-25T05:53:06.121Z,19.13
2023-01-25T05:55:37.173Z,18.40
2023-01-25T05:58:10.011Z,19.73
2023-01-25T06:00:39.899Z,19.33
2023-01-25T06:03:08.216Z,19.47
2023-01-25T06:05:38.330Z,17.57
2023-01-25T06:08:07.948Z,19.10
2023-01-25T06:10:44.445Z,18.67
2023-01-25T06:13:13.328Z,20.67
2023-01-25T06:15:43.459Z,19.27
2023-01-25T06:18:37.889Z,18.57
2023-01-25T06:21:24.480Z,19.97
2023-01-25T06:23:54.458Z,20.63
2023-01-25T06:26:22.707Z,19.93
2023-01-25T06:28:52.663Z,21.00
2023-01-25T06:31:21.431Z,20.53
2023-01-25T06:33:51.424Z,21.90
2023-01-25T06:36:23.654Z,21.10
2023-01-25T06:38:53.733Z,22.37
2023-01-25T06:41:23.441Z,22.37
2023-01-25T06:43:52.121Z,21.57
2023-01-25T06:46:20.891Z,20.53
2023-01-25T06:48:49.394Z,20.87
2023-01-25T06:51:17.982Z,24.13
2023-01-25T06:53:47.755Z,22.23
2023-01-25T06:56:17.768Z,22.53
2023-01-25T06:58:47.444Z,23.20
2023-01-25T07:01:20.008Z,26.10
2023-01-25T07:03:50.257Z,23.77
2023-01-25T07:06:18.344Z,24.67
2023-01-25T07:08:46.635Z,24.83
2023-01-25T07:11:15.392Z,24.77
2023-01-25T07:13:45.764Z,26.43
2023-01-25T07:16:16.944Z,28.67
2023-01-25T07:18:45.098Z,27.00
2023-01-25T07:21:15.018Z,27.20
2023-01-25T07:23:43.103Z,27.77
2023-01-25T07:26:16.774Z,29.40
2023-01-25T07:28:44.847Z,28.93
2023-01-25T07:31:13.436Z,28.27
2023-01-25T07:33:43.333Z,28.80
2023-01-25T07:36:12.726Z,27.03
2023-01-25T07:38:41.099Z,28.03
2023-01-25T07:41:09.203Z,26.47
2023-01-25T07:43:37.204Z,26.93
2023-01-25T07:46:08.172Z,26.37
2023-01-25T07:48:36.214Z,24.87
2023-01-25T07:51:22.571Z,24.07
2023-01-25T07:53:52.421Z,24.23
2023-01-25T07:56:21.232Z,23.97
2023-01-25T07:58:49.485Z,28.43
2023-01-25T08:01:19.241Z,25.97
2023-01-25T08:03:48.157Z,26.73
2023-01-25T08:06:17.677Z,27.43
2023-01-25T08:08:47.871Z,28.27
2023-01-25T08:11:20.338Z,31.73
2023-01-25T08:13:50.028Z,32.53
2023-01-25T08:16:22.953Z,33.20
2023-01-25T08:18:52.104Z,31.90
2023-01-25T08:21:24.243Z,34.70
2023-01-25T08:23:53.254Z,33.27
2023-01-25T08:26:21.405Z,32.80
2023-01-25T08:28:49.619Z,33.50
2023-01-25T08:31:19.328Z,33.80
2023-01-25T08:33:47.531Z,33.37
2023-01-25T08:36:18.313Z,34.67
2023-01-25T08:38:49.056Z,32.83
2023-01-25T08:41:19.591Z,32.80
2023-01-25T08:43:48.313Z,33.43
2023-01-25T08:46:17.849Z,34.80
2023-01-25T08:48:45.992Z,32.50
2023-01-25T08:51:16.161Z,35.57
2023-01-25T08:53:44.755Z,34.17
2023-01-25T08:56:16.765Z,34.13
2023-01-25T08:58:48.584Z,34.80
2023-01-25T09:01:18.383Z,35.27
2023-01-25T09:03:48.939Z,33.50
2023-01-25T09:06:18.435Z,33.07
2023-01-25T09:08:46.485Z,35.43
2023-01-25T09:11:18.440Z,33.10
2023-01-25T09:13:48.480Z,32.97
2023-01-25T09:16:18.185Z,32.77
2023-01-25T09:18:49.780Z,33.07
2023-01-25T09:21:20.005Z,33.80
2023-01-25T09:23:50.946Z,34.23
2023-01-25T09:26:27.141Z,35.20
2023-01-25T09:28:56.050Z,35.07
2023-01-25T09:31:25.378Z,35.03
2023-01-25T09:34:10.078Z,35.87
2023-01-25T09:36:38.310Z,35.20
2023-01-25T09:39:06.712Z,34.23
2023-01-25T09:42:14.006Z,33.37
2023-01-25T09:45:12.322Z,34.00
2023-01-25T09:47:48.920Z,32.43
2023-01-25T09:50:33.290Z,34.20
2023-01-25T09:53:25.466Z,33.20
2023-01-25T09:55:58.828Z,32.43
2023-01-25T09:58:34.243Z,33.13
2023-01-25T10:01:36.633Z,34.07
2023-01-25T10:04:12.526Z,33.17
2023-01-25T10:06:48.800Z,33.63
2023-01-25T10:09:33.265Z,33.27
2023-01-25T10:12:07.423Z,34.00
2023-01-25T10:14:37.061Z,33.90
2023-01-25T10:17:10.206Z,33.13
2023-01-25T10:19:49.570Z,34.13
2023-01-25T10:22:22.568Z,34.53
2023-01-25T10:25:25.530Z,34.70
2023-01-25T10:28:06.995Z,33.10
2023-01-25T10:30:42.591Z,36.20
2023-01-25T10:33:14.852Z,34.97
2023-01-25T10:35:47.493Z,33.20
2023-01-25T10:38:21.326Z,32.13
2023-01-25T10:40:56.880Z,33.37
2023-01-25T10:43:25.052Z,35.20
2023-01-25T10:45:54.410Z,34.80
2023-01-25T10:48:25.657Z,35.63
2023-01-25T10:50:55.460Z,33.87
2023-01-25T10:53:33.112Z,34.57
2023-01-25T10:56:08.236Z,34.07
2023-01-25T10:58:38.432Z,33.33
2023-01-25T11:01:11.858Z,35.20
2023-01-25T11:03:41.968Z,35.50
2023-01-25T11:06:10.794Z,36.53
2023-01-25T11:08:40.359Z,35.80
2023-01-25T11:11:25.611Z,37.27
2023-01-25T11:13:55.763Z,37.23
2023-01-25T11:16:38.447Z,35.87
2023-01-25T11:19:26.496Z,36.40
2023-01-25T11:21:56.056Z,37.07
2023-01-25T11:24:28.028Z,37.23
2023-01-25T11:27:15.215Z,37.17
2023-01-25T11:29:43.352Z,36.50
2023-01-25T11:32:21.699Z,36.93
2023-01-25T11:34:50.615Z,36.87
2023-01-25T11:37:39.244Z,36.10
2023-01-25T11:40:20.610Z,35.30
2023-01-25T11:43:00.113Z,34.50
2023-01-25T11:45:52.912Z,36.17
2023-01-25T11:48:44.015Z,33.77
2023-01-25T11:51:19.928Z,35.83
2023-01-25T11:53:59.867Z,38.07
2023-01-25T11:56:41.529Z,35.60
2023-01-25T11:59:30.255Z,36.73
2023-01-25T12:02:10.980Z,35.07
2023-01-25T12:05:02.318Z,36.33
2023-01-25T12:07:43.020Z,35.27
2023-01-25T12:10:25.341Z,34.53
2023-01-25T12:12:59.865Z,34.90
2023-01-25T12:15:42.453Z,35.90
2023-01-25T12:18:29.745Z,36.83
2023-01-25T12:21:08.197Z,38.70
2023-01-25T12:23:57.850Z,36.60
2023-01-25T12:26:29.990Z,35.67
2023-01-25T12:29:05.616Z,34.83
2023-01-25T12:31:41.701Z,35.83
2023-01-25T12:34:15.956Z,33.80
2023-01-25T12:36:50.928Z,33.50
2023-01-25T12:39:24.721Z,33.60
2023-01-25T12:41:58.289Z,32.53
2023-01-25T12:44:32.594Z,34.77
2023-01-25T12:47:08.831Z,35.07
2023-01-25T12:49:42.499Z,33.20
2023-01-25T12:52:20.458Z,32.63
2023-01-25T12:54:49.715Z,32.47
2023-01-25T12:57:26.357Z,31.53
2023-01-25T13:00:05.132Z,32.93
2023-01-25T13:02:52.100Z,33.17
2023-01-25T13:05:32.572Z,33.90
2023-01-25T13:08:20.209Z,32.63
2023-01-25T13:10:54.771Z,34.37
2023-01-25T13:13:28.052Z,31.67
2023-01-25T13:15:57.232Z,32.57
2023-01-25T13:18:38.165Z,32.50
2023-01-25T13:21:11.696Z,31.20
2023-01-25T13:23:47.444Z,30.97
2023-01-25T13:26:48.476Z,32.27
2023-01-25T13:29:53.153Z,30.03
2023-01-25T13:32:56.346Z,31.77
2023-01-25T13:35:45.755Z,30.77
2023-01-25T13:38:29.413Z,29.03
2023-01-25T13:41:14.439Z,31.33
2023-01-25T13:43:45.586Z,33.30
2023-01-25T13:46:17.113Z,32.97
2023-01-25T13:48:55.278Z,34.03
2023-01-25T13:51:24.618Z,33.03
2023-01-25T13:54:00.906Z,29.27
2023-01-25T13:56:33.598Z,29.43
2023-01-25T13:59:01.714Z,28.97
2023-01-25T14:01:31.990Z,27.10
2023-01-25T14:04:02.600Z,29.07
2023-01-25T14:06:33.486Z,31.30
2023-01-25T14:09:07.914Z,32.10
2023-01-25T14:11:46.245Z,32.73
2023-01-25T14:23:36.903Z,36.40
2023-01-25T14:26:05.306Z,35.77
2023-01-25T14:28:36.087Z,36.03
2023-01-25T14:31:06.110Z,36.77
2023-01-25T14:33:38.122Z,37.43
2023-01-25T14:36:24.073Z,37.33
2023-01-25T14:38:53.435Z,37.20
2023-01-25T14:41:27.208Z,36.50
2023-01-25T14:43:58.298Z,35.63
2023-01-25T14:46:29.773Z,36.37
2023-01-25T14:49:25.226Z,36.90
2023-01-25T14:52:01.099Z,33.83
2023-01-25T14:54:31.534Z,35.37
2023-01-25T14:57:03.562Z,37.80
2023-01-25T14:59:37.274Z,37.30
2023-01-25T15:02:21.122Z,39.73
2023-01-25T15:05:10.958Z,38.53
2023-01-25T15:07:46.017Z,39.50
2023-01-25T15:10:20.358Z,37.70
2023-01-25T15:13:12.768Z,40.00
2023-01-25T15:15:55.028Z,38.10
2023-01-25T15:18:43.145Z,36.77
2023-01-25T15:21:13.044Z,38.47
2023-01-25T15:23:42.816Z,36.70
2023-01-25T15:26:19.434Z,37.93
2023-01-25T15:28:47.878Z,34.07
2023-01-25T15:31:20.080Z,33.27
2023-01-25T15:33:48.316Z,34.27
2023-01-25T15:36:17.822Z,33.37
2023-01-25T15:38:46.400Z,37.87
2023-01-25T15:41:15.208Z,35.07
2023-01-25T15:43:43.269Z,35.13
2023-01-25T15:46:17.878Z,34.07
2023-01-25T15:48:48.525Z,36.17
2023-01-25T15:51:17.262Z,32.37
2023-01-25T15:53:46.929Z,34.93
2023-01-25T15:56:19.897Z,36.77
2023-01-25T15:58:51.744Z,35.87
2023-01-25T16:01:20.211Z,34.13
2023-01-25T16:03:49.742Z,33.63
2023-01-25T16:06:38.798Z,35.50
2023-01-25T16:09:16.282Z,35.03
2023-01-25T16:11:44.945Z,35.97
2023-01-25T16:14:13.600Z,35.13
2023-01-25T16:16:45.462Z,34.67
2023-01-25T16:19:16.500Z,34.67
2023-01-25T16:21:44.792Z,34.37
2023-01-25T16:24:14.136Z,35.47
2023-01-25T16:26:46.906Z,36.27
2023-01-25T16:29:15.125Z,35.57
2023-01-25T16:31:43.253Z,34.20
2023-01-25T16:34:11.312Z,33.33
2023-01-25T16:36:40.608Z,35.23
2023-01-25T16:39:10.489Z,34.77
2023-01-25T16:41:38.730Z,35.27
2023-01-25T16:44:06.818Z,32.57
2023-01-25T16:46:34.887Z,31.97
2023-01-25T16:49:05.067Z,32.33
2023-01-25T16:51:33.628Z,33.77
2023-01-25T16:54:03.119Z,33.47
2023-01-25T16:56:32.893Z,33.60
2023-01-25T16:59:03.780Z,31.57
2023-01-25T17:01:32.502Z,31.07
2023-01-25T17:04:00.560Z,32.27
2023-01-25T17:06:30.713Z,31.77
2023-01-25T17:09:09.421Z,33.07
2023-01-25T17:11:42.611Z,33.77
2023-01-25T17:14:15.096Z,32.03
2023-01-25T17:16:42.975Z,31.80
2023-01-25T17:19:15.115Z,32.57
2023-01-25T17:21:43.200Z,32.17
2023-01-25T17:24:14.448Z,30.33
2023-01-25T17:26:43.941Z,31.20
2023-01-25T17:29:13.741Z,31.33
2023-01-25T17:31:44.296Z,30.13
2023-01-25T17:34:16.361Z,29.63
2023-01-25T17:36:44.706Z,31.47
2023-01-25T17:39:15.473Z,30.67
2023-01-25T17:41:45.580Z,30.27
2023-01-25T17:44:14.799Z,31.30
2023-01-25T17:46:42.847Z,31.37
2023-01-25T17:49:15.653Z,31.17
2023-01-25T17:51:43.961Z,32.40
2023-01-25T17:54:13.169Z,32.63
2023-01-25T17:56:41.687Z,32.20
2023-01-25T17:59:11.724Z,33.33
2023-01-25T18:01:42.797Z,31.63
2023-01-25T18:04:13.437Z,29.77
2023-01-25T18:06:42.048Z,31.20
2023-01-25T18:09:10.617Z,33.07
2023-01-25T18:11:41.191Z,32.30
2023-01-25T18:14:13.264Z,31.40
2023-01-25T18:16:42.496Z,32.00
2023-01-25T18:19:11.297Z,32.17
2023-01-25T18:21:41.940Z,32.27
2023-01-25T18:24:24.971Z,33.03
2023-01-25T18:26:55.448Z,35.70
2023-01-25T18:29:41.681Z,38.03
2023-01-25T18:32:09.607Z,37.23
2023-01-25T18:34:37.650Z,37.63
2023-01-25T18:37:19.224Z,36.93
2023-01-25T18:39:48.124Z,41.27
2023-01-25T18:42:16.453Z,38.83
2023-01-25T18:44:48.384Z,39.13
2023-01-25T18:47:18.622Z,37.77
2023-01-25T18:49:47.201Z,39.03
2023-01-25T18:52:16.771Z,35.57
2023-01-25T18:54:44.840Z,44.17
2023-01-25T18:57:13.338Z,35.33
2023-01-25T18:59:41.817Z,39.37
2023-01-25T19:02:14.217Z,37.23
2023-01-25T19:04:42.466Z,46.07
2023-01-25T19:07:10.411Z,46.27
2023-01-25T19:09:38.533Z,37.80
2023-01-25T19:12:06.987Z,38.07
2023-01-25T19:14:35.012Z,41.00
2023-01-25T19:17:03.071Z,37.57
2023-01-25T19:19:34.043Z,36.47
2023-01-25T19:22:02.626Z,36.53
2023-01-25T19:24:30.966Z,42.13
2023-01-25T19:26:59.242Z,52.20
2023-01-25T19:29:27.488Z,50.93
2023-01-25T19:31:55.437Z,40.47
2023-01-25T19:34:23.516Z,37.40
2023-01-25T19:36:53.955Z,37.13
2023-01-25T19:39:22.033Z,38.03
2023-01-25T19:41:52.886Z,38.47
2023-01-25T19:44:21.013Z,40.60
2023-01-25T19:46:49.194Z,39.73
2023-01-25T19:49:17.177Z,40.77
2023-01-25T19:51:52.628Z,43.70
2023-01-25T19:54:24.050Z,43.23
2023-01-25T19:56:52.035Z,39.90
2023-01-25T19:59:22.098Z,41.27
2023-01-25T20:01:50.106Z,40.60
2023-01-25T20:04:21.057Z,41.73
2023-01-25T20:06:49.598Z,41.90
2023-01-25T20:09:20.104Z,42.03
2023-01-25T20:11:49.640Z,42.50
2023-01-25T20:14:17.763Z,42.43
2023-01-25T20:16:47.025Z,42.30
2023-01-25T20:19:15.112Z,43.03
2023-01-25T20:21:43.097Z,41.07
2023-01-25T20:24:11.470Z,41.30
2023-01-25T20:26:42.935Z,42.50
2023-01-25T20:29:13.738Z,45.47
2023-01-25T20:31:43.346Z,40.93
2023-01-25T20:34:14.312Z,43.37
2023-01-25T20:36:43.387Z,44.47
2023-01-25T20:39:14.464Z,44.27
2023-01-25T20:41:43.011Z,44.00
2023-01-25T20:44:14.526Z,44.87
2023-01-25T20:46:44.191Z,44.33
2023-01-25T20:49:15.856Z,46.90
2023-01-25T20:51:43.969Z,42.87
2023-01-25T20:54:12.334Z,45.33
2023-01-25T20:56:40.504Z,47.20
2023-01-25T20:59:08.614Z,45.37
2023-01-25T21:01:38.146Z,42.90
2023-01-25T21:04:09.713Z,43.90
2023-01-25T21:06:38.686Z,44.13
2023-01-25T21:09:07.391Z,44.20
2023-01-25T21:11:35.702Z,43.03
2023-01-25T21:14:04.335Z,44.27
2023-01-25T21:16:32.412Z,43.97
2023-01-25T21:19:06.363Z,43.17
2023-01-25T21:21:35.106Z,42.80
2023-01-25T21:24:05.529Z,43.80
2023-01-25T21:26:35.394Z,42.53
2023-01-25T21:29:04.375Z,42.00
2023-01-25T21:31:33.517Z,43.47
2023-01-25T21:34:04.695Z,44.43
2023-01-25T21:36:33.010Z,43.43
2023-01-25T21:39:01.248Z,43.23
2023-01-25T21:41:31.130Z,40.90
2023-01-25T21:44:18.588Z,43.67
2023-01-25T21:47:12.510Z,41.67
2023-01-25T21:49:53.666Z,41.07
2023-01-25T21:52:21.643Z,44.27
2023-01-25T21:54:49.619Z,42.23
2023-01-25T21:57:17.663Z,42.00
2023-01-25T21:59:45.741Z,42.50
2023-01-25T22:02:15.757Z,42.10
2023-01-25T22:04:45.264Z,42.67
2023-01-25T22:07:13.373Z,41.90
2023-01-25T22:09:41.258Z,43.67
2023-01-25T22:12:09.319Z,43.10
2023-01-25T22:14:37.229Z,44.50
2023-01-25T22:17:05.320Z,44.20
2023-01-25T22:19:33.364Z,44.03
2023-01-25T22:22:02.933Z,42.17
2023-01-25T22:24:30.924Z,43.17
2023-01-25T22:27:05.725Z,42.43
2023-01-25T22:29:34.480Z,43.57
2023-01-25T22:32:02.561Z,43.20
2023-01-25T22:34:30.859Z,43.27
2023-01-25T22:36:58.848Z,44.23
2023-01-25T22:39:28.304Z,41.60
2023-01-25T22:41:56.601Z,44.27
2023-01-25T22:44:24.585Z,42.67
2023-01-25T22:46:53.787Z,43.73
2023-01-25T22:49:21.812Z,45.17
2023-01-25T22:51:49.720Z,44.03
2023-01-25T22:54:17.618Z,44.03
2023-01-25T22:56:47.066Z,45.27
2023-01-25T22:59:19.143Z,43.33
2023-01-25T23:01:47.545Z,44.27
2023-01-25T23:04:15.550Z,41.33
2023-01-25T23:06:43.957Z,43.60
2023-01-25T23:09:11.960Z,44.30
2023-01-25T23:11:40.070Z,43.67
2023-01-25T23:14:29.927Z,44.27
2023-01-25T23:17:18.031Z,42.13
2023-01-25T23:19:44.993Z,41.53
2023-01-25T23:22:12.963Z,42.73
2023-01-25T23:24:40.892Z,43.20
2023-01-25T23:27:09.007Z,43.13
2023-01-25T23:29:38.473Z,44.73
2023-01-25T23:32:06.888Z,44.60
2023-01-25T23:34:39.531Z,44.07
2023-01-25T23:37:07.635Z,42.67
2023-01-25T23:39:35.516Z,41.33
2023-01-25T23:42:03.794Z,43.83
2023-01-25T23:44:31.831Z,41.77
2023-01-25T23:47:01.745Z,42.37
2023-01-25T23:49:29.791Z,41.27
2023-01-25T23:51:57.700Z,38.83
2023-01-25T23:54:26.939Z,42.87
2023-01-25T23:56:55.255Z,43.07
2023-01-25T23:59:23.514Z,43.37
